sensor_id;sensor_type;location;lat;lon;timestamp;P1;durP1;ratioP1;P2;durP2;ratioP2
49310;SDS011;35177;45.900;5.946;2023-10-08T00:02:08;8.77;;;4.32;;
49310;SDS011;35177;45.900;5.946;2023-10-08T00:04:35;9.93;;;4.95;;
49310;SDS011;35177;45.900;5.946;2023-10-08T00:07:06;7.80;;;4.72;;
49310;SDS011;35177;45.900;5.946;2023-10-08T00:09:34;10.05;;;5.28;;
49310;SDS011;35177;45.900;5.946;2023-10-08T00:12:03;7.60;;;4.50;;
49310;SDS011;35177;45.900;5.946;2023-10-08T00:14:29;6.57;;;4.25;;
49310;SDS011;35177;45.900;5.946;2023-10-08T00:16:56;6.88;;;4.80;;
49310;SDS011;35177;45.900;5.946;2023-10-08T00:19:23;8.98;;;4.90;;
49310;SDS011;35177;45.900;5.946;2023-10-08T00:21:49;8.40;;;4.65;;
49310;SDS011;35177;45.900;5.946;2023-10-08T00:24:18;7.70;;;4.32;;
49310;SDS011;35177;45.900;5.946;2023-10-08T00:26:43;7.78;;;4.88;;
49310;SDS011;35177;45.900;5.946;2023-10-08T00:29:09;8.30;;;4.90;;
49310;SDS011;35177;45.900;5.946;2023-10-08T00:31:41;8.35;;;5.05;;
49310;SDS011;35177;45.900;5.946;2023-10-08T00:34:10;8.52;;;4.88;;
49310;SDS011;35177;45.900;5.946;2023-10-08T00:36:42;7.30;;;4.78;;
49310;SDS011;35177;45.900;5.946;2023-10-08T00:39:09;13.00;;;5.03;;
49310;SDS011;35177;45.900;5.946;2023-10-08T00:41:41;11.90;;;5.65;;
49310;SDS011;35177;45.900;5.946;2023-10-08T00:44:11;12.13;;;5.97;;
49310;SDS011;35177;45.900;5.946;2023-10-08T00:46:40;8.38;;;5.20;;
49310;SDS011;35177;45.900;5.946;2023-10-08T00:49:15;9.90;;;5.20;;
49310;SDS011;35177;45.900;5.946;2023-10-08T00:52:02;8.45;;;5.18;;
49310;SDS011;35177;45.900;5.946;2023-10-08T00:54:37;9.55;;;5.10;;
49310;SDS011;35177;45.900;5.946;2023-10-08T00:57:20;7.32;;;4.63;;
49310;SDS011;35177;45.900;5.946;2023-10-08T00:59:47;7.63;;;4.35;;
49310;SDS011;35177;45.900;5.946;2023-10-08T01:02:20;7.85;;;4.63;;
49310;SDS011;35177;45.900;5.946;2023-10-08T01:04:52;8.32;;;4.43;;
49310;SDS011;35177;45.900;5.946;2023-10-08T01:07:19;10.75;;;5.32;;
49310;SDS011;35177;45.900;5.946;2023-10-08T01:09:45;10.05;;;4.47;;
49310;SDS011;35177;45.900;5.946;2023-10-08T01:12:23;8.73;;;5.05;;
49310;SDS011;35177;45.900;5.946;2023-10-08T01:14:53;13.10;;;4.70;;
49310;SDS011;35177;45.900;5.946;2023-10-08T01:17:19;12.27;;;4.95;;
49310;SDS011;35177;45.900;5.946;2023-10-08T01:19:49;8.15;;;4.38;;
49310;SDS011;35177;45.900;5.946;2023-10-08T01:22:25;8.77;;;4.68;;
49310;SDS011;35177;45.900;5.946;2023-10-08T01:24:54;9.02;;;4.53;;
49310;SDS011;35177;45.900;5.946;2023-10-08T01:27:19;8.10;;;4.35;;
49310;SDS011;35177;45.900;5.946;2023-10-08T01:29:52;6.95;;;4.43;;
49310;SDS011;35177;45.900;5.946;2023-10-08T01:32:18;5.95;;;4.07;;
49310;SDS011;35177;45.900;5.946;2023-10-08T01:34:45;8.93;;;4.03;;
49310;SDS011;35177;45.900;5.946;2023-10-08T01:37:17;6.05;;;3.78;;
49310;SDS011;35177;45.900;5.946;2023-10-08T01:39:44;6.60;;;4.10;;
49310;SDS011;35177;45.900;5.946;2023-10-08T01:42:15;10.73;;;4.60;;
49310;SDS011;35177;45.900;5.946;2023-10-08T01:44:46;7.50;;;4.32;;
49310;SDS011;35177;45.900;5.946;2023-10-08T01:47:13;8.32;;;4.07;;
49310;SDS011;35177;45.900;5.946;2023-10-08T01:49:45;8.00;;;4.57;;
49310;SDS011;35177;45.900;5.946;2023-10-08T01:52:11;7.28;;;4.85;;
49310;SDS011;35177;45.900;5.946;2023-10-08T01:54:46;8.55;;;4.60;;
49310;SDS011;35177;45.900;5.946;2023-10-08T01:57:15;12.00;;;4.82;;
49310;SDS011;35177;45.900;5.946;2023-10-08T01:59:42;7.07;;;4.70;;
49310;SDS011;35177;45.900;5.946;2023-10-08T02:02:09;7.68;;;4.22;;
49310;SDS011;35177;45.900;5.946;2023-10-08T02:04:34;8.48;;;4.68;;
49310;SDS011;35177;45.900;5.946;2023-10-08T02:07:01;8.48;;;5.10;;
49310;SDS011;35177;45.900;5.946;2023-10-08T02:09:28;7.00;;;4.40;;
49310;SDS011;35177;45.900;5.946;2023-10-08T02:11:54;8.57;;;4.47;;
49310;SDS011;35177;45.900;5.946;2023-10-08T02:14:20;8.00;;;4.22;;
49310;SDS011;35177;45.900;5.946;2023-10-08T02:16:47;6.50;;;3.53;;
49310;SDS011;35177;45.900;5.946;2023-10-08T02:19:14;7.03;;;4.68;;
49310;SDS011;35177;45.900;5.946;2023-10-08T02:21:43;7.28;;;4.60;;
49310;SDS011;35177;45.900;5.946;2023-10-08T02:24:11;8.52;;;5.00;;
49310;SDS011;35177;45.900;5.946;2023-10-08T02:26:38;8.90;;;5.47;;
49310;SDS011;35177;45.900;5.946;2023-10-08T02:29:04;11.15;;;4.68;;
49310;SDS011;35177;45.900;5.946;2023-10-08T02:31:38;10.25;;;4.93;;
49310;SDS011;35177;45.900;5.946;2023-10-08T02:34:08;8.52;;;4.70;;
49310;SDS011;35177;45.900;5.946;2023-10-08T02:36:34;7.15;;;4.53;;
49310;SDS011;35177;45.900;5.946;2023-10-08T02:39:05;5.97;;;4.07;;
49310;SDS011;35177;45.900;5.946;2023-10-08T02:41:39;5.93;;;3.53;;
49310;SDS011;35177;45.900;5.946;2023-10-08T02:44:08;7.85;;;4.55;;
49310;SDS011;35177;45.900;5.946;2023-10-08T02:46:38;15.18;;;4.53;;
49310;SDS011;35177;45.900;5.946;2023-10-08T02:49:06;11.73;;;5.10;;
49310;SDS011;35177;45.900;5.946;2023-10-08T02:51:39;7.60;;;5.03;;
49310;SDS011;35177;45.900;5.946;2023-10-08T02:54:09;11.88;;;5.13;;
49310;SDS011;35177;45.900;5.946;2023-10-08T02:56:42;8.50;;;4.85;;
49310;SDS011;35177;45.900;5.946;2023-10-08T02:59:10;7.72;;;4.60;;
49310;SDS011;35177;45.900;5.946;2023-10-08T03:01:37;8.07;;;4.78;;
49310;SDS011;35177;45.900;5.946;2023-10-08T03:04:05;7.90;;;4.30;;
49310;SDS011;35177;45.900;5.946;2023-10-08T03:06:44;5.45;;;3.95;;
49310;SDS011;35177;45.900;5.946;2023-10-08T03:09:14;13.02;;;4.63;;
49310;SDS011;35177;45.900;5.946;2023-10-08T03:11:40;12.27;;;5.45;;
49310;SDS011;35177;45.900;5.946;2023-10-08T03:14:12;7.18;;;4.68;;
49310;SDS011;35177;45.900;5.946;2023-10-08T03:16:42;8.10;;;4.88;;
49310;SDS011;35177;45.900;5.946;2023-10-08T03:19:13;16.02;;;5.90;;
49310;SDS011;35177;45.900;5.946;2023-10-08T03:21:43;10.45;;;6.05;;
49310;SDS011;35177;45.900;5.946;2023-10-08T03:24:15;8.50;;;5.53;;
49310;SDS011;35177;45.900;5.946;2023-10-08T03:27:16;9.80;;;5.35;;
49310;SDS011;35177;45.900;5.946;2023-10-08T03:29:45;9.35;;;5.10;;
49310;SDS011;35177;45.900;5.946;2023-10-08T03:32:12;8.95;;;4.88;;
49310;SDS011;35177;45.900;5.946;2023-10-08T03:34:48;9.13;;;5.03;;
49310;SDS011;35177;45.900;5.946;2023-10-08T03:37:16;9.30;;;5.10;;
49310;SDS011;35177;45.900;5.946;2023-10-08T03:39:49;6.75;;;4.63;;
49310;SDS011;35177;45.900;5.946;2023-10-08T03:42:25;9.30;;;4.70;;
49310;SDS011;35177;45.900;5.946;2023-10-08T03:44:55;7.07;;;4.25;;
49310;SDS011;35177;45.900;5.946;2023-10-08T03:47:21;7.25;;;4.47;;
49310;SDS011;35177;45.900;5.946;2023-10-08T03:49:54;6.93;;;4.50;;
49310;SDS011;35177;45.900;5.946;2023-10-08T03:52:19;9.50;;;5.05;;
49310;SDS011;35177;45.900;5.946;2023-10-08T03:54:50;9.07;;;4.47;;
49310;SDS011;35177;45.900;5.946;2023-10-08T03:57:36;9.00;;;4.10;;
49310;SDS011;35177;45.900;5.946;2023-10-08T04:00:11;7.45;;;4.70;;
49310;SDS011;35177;45.900;5.946;2023-10-08T04:02:39;12.18;;;4.50;;
49310;SDS011;35177;45.900;5.946;2023-10-08T04:05:06;10.48;;;4.78;;
49310;SDS011;35177;45.900;5.946;2023-10-08T04:07:44;7.65;;;4.53;;
49310;SDS011;35177;45.900;5.946;2023-10-08T04:10:29;8.85;;;4.53;;
49310;SDS011;35177;45.900;5.946;2023-10-08T04:13:06;10.55;;;4.50;;
49310;SDS011;35177;45.900;5.946;2023-10-08T04:15:35;8.13;;;4.63;;
49310;SDS011;35177;45.900;5.946;2023-10-08T04:18:06;8.05;;;4.85;;
49310;SDS011;35177;45.900;5.946;2023-10-08T04:20:38;8.85;;;4.93;;
49310;SDS011;35177;45.900;5.946;2023-10-08T04:23:04;15.75;;;4.80;;
49310;SDS011;35177;45.900;5.946;2023-10-08T04:25:31;6.88;;;4.20;;
49310;SDS011;35177;45.900;5.946;2023-10-08T04:27:57;8.85;;;4.68;;
49310;SDS011;35177;45.900;5.946;2023-10-08T04:30:27;10.02;;;4.93;;
49310;SDS011;35177;45.900;5.946;2023-10-08T04:33:01;6.63;;;3.83;;
49310;SDS011;35177;45.900;5.946;2023-10-08T04:35:38;5.97;;;3.42;;
49310;SDS011;35177;45.900;5.946;2023-10-08T04:38:16;13.75;;;4.28;;
49310;SDS011;35177;45.900;5.946;2023-10-08T04:40:47;9.25;;;4.03;;
49310;SDS011;35177;45.900;5.946;2023-10-08T04:43:14;9.52;;;4.28;;
49310;SDS011;35177;45.900;5.946;2023-10-08T04:45:40;8.45;;;3.78;;
49310;SDS011;35177;45.900;5.946;2023-10-08T04:48:06;7.95;;;4.38;;
49310;SDS011;35177;45.900;5.946;2023-10-08T04:50:35;8.48;;;3.75;;
49310;SDS011;35177;45.900;5.946;2023-10-08T04:53:02;9.40;;;4.25;;
49310;SDS011;35177;45.900;5.946;2023-10-08T04:55:33;8.15;;;4.30;;
49310;SDS011;35177;45.900;5.946;2023-10-08T04:58:06;11.15;;;5.03;;
49310;SDS011;35177;45.900;5.946;2023-10-08T05:00:44;8.85;;;4.22;;
49310;SDS011;35177;45.900;5.946;2023-10-08T05:05:45;13.98;;;5.05;;
49310;SDS011;35177;45.900;5.946;2023-10-08T05:08:29;10.27;;;4.17;;
49310;SDS011;35177;45.900;5.946;2023-10-08T05:10:58;11.02;;;4.57;;
49310;SDS011;35177;45.900;5.946;2023-10-08T05:13:40;6.20;;;4.18;;
49310;SDS011;35177;45.900;5.946;2023-10-08T05:16:20;7.38;;;4.25;;
49310;SDS011;35177;45.900;5.946;2023-10-08T05:19:01;13.02;;;6.22;;
49310;SDS011;35177;45.900;5.946;2023-10-08T05:21:49;7.65;;;4.75;;
49310;SDS011;35177;45.900;5.946;2023-10-08T05:24:27;7.82;;;4.72;;
49310;SDS011;35177;45.900;5.946;2023-10-08T05:27:03;7.32;;;4.35;;
49310;SDS011;35177;45.900;5.946;2023-10-08T05:29:54;7.10;;;4.72;;
49310;SDS011;35177;45.900;5.946;2023-10-08T05:32:37;7.63;;;4.43;;
49310;SDS011;35177;45.900;5.946;2023-10-08T05:35:09;6.72;;;4.25;;
49310;SDS011;35177;45.900;5.946;2023-10-08T05:37:53;6.95;;;4.25;;
49310;SDS011;35177;45.900;5.946;2023-10-08T05:40:37;12.02;;;4.53;;
49310;SDS011;35177;45.900;5.946;2023-10-08T05:43:23;9.40;;;4.30;;
49310;SDS011;35177;45.900;5.946;2023-10-08T05:46:14;9.75;;;4.75;;
49310;SDS011;35177;45.900;5.946;2023-10-08T05:49:07;6.93;;;4.88;;
49310;SDS011;35177;45.900;5.946;2023-10-08T05:51:35;9.00;;;5.03;;
49310;SDS011;35177;45.900;5.946;2023-10-08T05:54:17;6.95;;;4.10;;
49310;SDS011;35177;45.900;5.946;2023-10-08T05:57:08;7.55;;;4.55;;
49310;SDS011;35177;45.900;5.946;2023-10-08T05:59:43;6.57;;;4.28;;
49310;SDS011;35177;45.900;5.946;2023-10-08T06:02:22;8.90;;;5.10;;
49310;SDS011;35177;45.900;5.946;2023-10-08T06:07:37;6.32;;;4.35;;
49310;SDS011;35177;45.900;5.946;2023-10-08T06:10:14;10.45;;;4.68;;
49310;SDS011;35177;45.900;5.946;2023-10-08T06:12:55;9.95;;;4.10;;
49310;SDS011;35177;45.900;5.946;2023-10-08T06:18:22;8.27;;;4.68;;
49310;SDS011;35177;45.900;5.946;2023-10-08T06:20:52;8.00;;;4.38;;
49310;SDS011;35177;45.900;5.946;2023-10-08T06:23:23;9.27;;;4.85;;
49310;SDS011;35177;45.900;5.946;2023-10-08T06:25:50;6.80;;;4.43;;
49310;SDS011;35177;45.900;5.946;2023-10-08T06:28:22;13.82;;;5.35;;
49310;SDS011;35177;45.900;5.946;2023-10-08T06:30:51;13.02;;;6.00;;
49310;SDS011;35177;45.900;5.946;2023-10-08T06:33:24;8.07;;;5.43;;
49310;SDS011;35177;45.900;5.946;2023-10-08T06:35:55;11.15;;;6.13;;
49310;SDS011;35177;45.900;5.946;2023-10-08T06:38:31;8.38;;;5.50;;
49310;SDS011;35177;45.900;5.946;2023-10-08T06:40:58;9.48;;;5.25;;
49310;SDS011;35177;45.900;5.946;2023-10-08T06:43:39;9.05;;;5.32;;
49310;SDS011;35177;45.900;5.946;2023-10-08T06:46:11;12.15;;;5.70;;
49310;SDS011;35177;45.900;5.946;2023-10-08T06:48:37;9.85;;;6.15;;
49310;SDS011;35177;45.900;5.946;2023-10-08T06:51:07;11.07;;;5.63;;
49310;SDS011;35177;45.900;5.946;2023-10-08T06:53:38;11.25;;;5.18;;
49310;SDS011;35177;45.900;5.946;2023-10-08T06:56:07;12.18;;;6.85;;
49310;SDS011;35177;45.900;5.946;2023-10-08T06:58:35;18.67;;;5.82;;
49310;SDS011;35177;45.900;5.946;2023-10-08T07:01:00;12.75;;;5.53;;
49310;SDS011;35177;45.900;5.946;2023-10-08T07:03:33;10.25;;;4.70;;
49310;SDS011;35177;45.900;5.946;2023-10-08T07:06:01;9.80;;;5.60;;
49310;SDS011;35177;45.900;5.946;2023-10-08T07:08:41;10.55;;;4.72;;
49310;SDS011;35177;45.900;5.946;2023-10-08T07:11:08;8.77;;;5.57;;
49310;SDS011;35177;45.900;5.946;2023-10-08T07:13:36;10.63;;;4.70;;
49310;SDS011;35177;45.900;5.946;2023-10-08T07:16:02;7.75;;;4.82;;
49310;SDS011;35177;45.900;5.946;2023-10-08T07:18:29;5.60;;;3.75;;
49310;SDS011;35177;45.900;5.946;2023-10-08T07:20:59;8.48;;;4.50;;
49310;SDS011;35177;45.900;5.946;2023-10-08T07:23:36;7.05;;;3.83;;
49310;SDS011;35177;45.900;5.946;2023-10-08T07:26:05;6.53;;;4.00;;
49310;SDS011;35177;45.900;5.946;2023-10-08T07:28:44;7.93;;;4.85;;
49310;SDS011;35177;45.900;5.946;2023-10-08T07:31:14;7.53;;;4.22;;
49310;SDS011;35177;45.900;5.946;2023-10-08T07:33:50;8.38;;;4.70;;
49310;SDS011;35177;45.900;5.946;2023-10-08T07:36:38;8.60;;;4.40;;
49310;SDS011;35177;45.900;5.946;2023-10-08T07:39:03;9.88;;;5.30;;
49310;SDS011;35177;45.900;5.946;2023-10-08T07:41:33;7.68;;;4.65;;
49310;SDS011;35177;45.900;5.946;2023-10-08T07:43:59;9.75;;;5.70;;
49310;SDS011;35177;45.900;5.946;2023-10-08T07:46:25;8.65;;;5.60;;
49310;SDS011;35177;45.900;5.946;2023-10-08T07:48:54;13.07;;;6.43;;
49310;SDS011;35177;45.900;5.946;2023-10-08T07:51:20;15.43;;;7.47;;
49310;SDS011;35177;45.900;5.946;2023-10-08T07:53:49;9.32;;;5.68;;
49310;SDS011;35177;45.900;5.946;2023-10-08T07:56:24;8.35;;;5.53;;
49310;SDS011;35177;45.900;5.946;2023-10-08T07:58:50;10.40;;;5.82;;
49310;SDS011;35177;45.900;5.946;2023-10-08T08:01:16;9.30;;;5.55;;
49310;SDS011;35177;45.900;5.946;2023-10-08T08:03:42;10.13;;;5.88;;
49310;SDS011;35177;45.900;5.946;2023-10-08T08:06:08;10.90;;;6.00;;
49310;SDS011;35177;45.900;5.946;2023-10-08T08:08:34;9.85;;;5.75;;
49310;SDS011;35177;45.900;5.946;2023-10-08T08:11:07;15.80;;;6.57;;
49310;SDS011;35177;45.900;5.946;2023-10-08T08:13:42;12.32;;;6.13;;
49310;SDS011;35177;45.900;5.946;2023-10-08T08:16:11;10.23;;;6.15;;
49310;SDS011;35177;45.900;5.946;2023-10-08T08:18:48;15.82;;;6.45;;
49310;SDS011;35177;45.900;5.946;2023-10-08T08:21:14;13.10;;;5.43;;
49310;SDS011;35177;45.900;5.946;2023-10-08T08:23:41;11.82;;;5.50;;
49310;SDS011;35177;45.900;5.946;2023-10-08T08:26:13;12.95;;;6.00;;
49310;SDS011;35177;45.900;5.946;2023-10-08T08:29:01;11.50;;;6.13;;
49310;SDS011;35177;45.900;5.946;2023-10-08T08:31:30;12.20;;;5.82;;
49310;SDS011;35177;45.900;5.946;2023-10-08T08:34:00;8.77;;;5.22;;
49310;SDS011;35177;45.900;5.946;2023-10-08T08:36:28;9.57;;;5.55;;
49310;SDS011;35177;45.900;5.946;2023-10-08T08:38:55;9.85;;;5.38;;
49310;SDS011;35177;45.900;5.946;2023-10-08T08:41:22;15.95;;;5.72;;
49310;SDS011;35177;45.900;5.946;2023-10-08T08:43:51;14.40;;;5.55;;
49310;SDS011;35177;45.900;5.946;2023-10-08T08:46:36;11.90;;;5.63;;
49310;SDS011;35177;45.900;5.946;2023-10-08T08:49:03;11.25;;;5.65;;
49310;SDS011;35177;45.900;5.946;2023-10-08T08:51:37;11.20;;;5.17;;
49310;SDS011;35177;45.900;5.946;2023-10-08T08:54:03;9.90;;;5.50;;
49310;SDS011;35177;45.900;5.946;2023-10-08T08:56:34;8.80;;;5.07;;
49310;SDS011;35177;45.900;5.946;2023-10-08T08:59:04;12.90;;;4.70;;
49310;SDS011;35177;45.900;5.946;2023-10-08T09:01:30;11.90;;;4.97;;
49310;SDS011;35177;45.900;5.946;2023-10-08T09:04:00;11.52;;;5.13;;
49310;SDS011;35177;45.900;5.946;2023-10-08T09:06:29;15.15;;;5.38;;
49310;SDS011;35177;45.900;5.946;2023-10-08T09:08:56;9.88;;;4.53;;
49310;SDS011;35177;45.900;5.946;2023-10-08T09:11:41;11.65;;;5.03;;
49310;SDS011;35177;45.900;5.946;2023-10-08T09:14:08;10.73;;;5.00;;
49310;SDS011;35177;45.900;5.946;2023-10-08T09:16:35;14.60;;;5.82;;
49310;SDS011;35177;45.900;5.946;2023-10-08T09:19:01;16.65;;;5.60;;
49310;SDS011;35177;45.900;5.946;2023-10-08T09:21:27;13.65;;;5.18;;
49310;SDS011;35177;45.900;5.946;2023-10-08T09:23:52;15.48;;;5.05;;
49310;SDS011;35177;45.900;5.946;2023-10-08T09:26:25;11.50;;;4.82;;
49310;SDS011;35177;45.900;5.946;2023-10-08T09:28:54;14.45;;;5.20;;
49310;SDS011;35177;45.900;5.946;2023-10-08T09:31:22;14.25;;;5.38;;
49310;SDS011;35177;45.900;5.946;2023-10-08T09:33:54;18.70;;;5.68;;
49310;SDS011;35177;45.900;5.946;2023-10-08T09:36:21;18.30;;;6.13;;
49310;SDS011;35177;45.900;5.946;2023-10-08T09:38:56;12.10;;;6.10;;
49310;SDS011;35177;45.900;5.946;2023-10-08T09:41:25;12.90;;;5.03;;
49310;SDS011;35177;45.900;5.946;2023-10-08T09:43:53;17.05;;;5.45;;
49310;SDS011;35177;45.900;5.946;2023-10-08T09:46:21;11.35;;;5.20;;
49310;SDS011;35177;45.900;5.946;2023-10-08T09:48:53;8.63;;;4.38;;
49310;SDS011;35177;45.900;5.946;2023-10-08T09:51:24;14.65;;;5.35;;
49310;SDS011;35177;45.900;5.946;2023-10-08T09:53:59;9.13;;;4.70;;
49310;SDS011;35177;45.900;5.946;2023-10-08T09:56:35;11.80;;;4.75;;
49310;SDS011;35177;45.900;5.946;2023-10-08T09:59:01;15.05;;;4.78;;
49310;SDS011;35177;45.900;5.946;2023-10-08T10:01:27;11.43;;;4.95;;
49310;SDS011;35177;45.900;5.946;2023-10-08T10:03:53;9.95;;;4.20;;
49310;SDS011;35177;45.900;5.946;2023-10-08T10:06:20;14.02;;;4.55;;
49310;SDS011;35177;45.900;5.946;2023-10-08T10:08:45;11.10;;;3.97;;
49310;SDS011;35177;45.900;5.946;2023-10-08T10:11:13;12.75;;;4.43;;
49310;SDS011;35177;45.900;5.946;2023-10-08T10:13:43;15.68;;;4.40;;
49310;SDS011;35177;45.900;5.946;2023-10-08T10:16:13;10.50;;;4.47;;
49310;SDS011;35177;45.900;5.946;2023-10-08T10:18:43;15.18;;;4.38;;
49310;SDS011;35177;45.900;5.946;2023-10-08T10:31:40;8.67;;;4.00;;
49310;SDS011;35177;45.900;5.946;2023-10-08T10:34:13;8.30;;;4.05;;
49310;SDS011;35177;45.900;5.946;2023-10-08T10:36:41;10.43;;;4.30;;
49310;SDS011;35177;45.900;5.946;2023-10-08T10:39:12;15.63;;;4.80;;
49310;SDS011;35177;45.900;5.946;2023-10-08T10:41:51;11.32;;;3.88;;
49310;SDS011;35177;45.900;5.946;2023-10-08T10:44:24;11.82;;;4.40;;
49310;SDS011;35177;45.900;5.946;2023-10-08T10:46:50;8.65;;;4.43;;
49310;SDS011;35177;45.900;5.946;2023-10-08T10:49:38;8.70;;;4.25;;
49310;SDS011;35177;45.900;5.946;2023-10-08T10:52:27;12.18;;;4.57;;
49310;SDS011;35177;45.900;5.946;2023-10-08T10:54:58;12.68;;;4.40;;
49310;SDS011;35177;45.900;5.946;2023-10-08T10:57:44;9.95;;;4.10;;
49310;SDS011;35177;45.900;5.946;2023-10-08T11:00:29;10.70;;;3.80;;
49310;SDS011;35177;45.900;5.946;2023-10-08T11:02:58;8.60;;;4.53;;
49310;SDS011;35177;45.900;5.946;2023-10-08T11:05:27;10.75;;;4.18;;
49310;SDS011;35177;45.900;5.946;2023-10-08T11:07:56;10.18;;;4.68;;
49310;SDS011;35177;45.900;5.946;2023-10-08T11:10:41;14.38;;;5.38;;
49310;SDS011;35177;45.900;5.946;2023-10-08T11:13:14;11.18;;;4.53;;
49310;SDS011;35177;45.900;5.946;2023-10-08T11:15:40;12.38;;;4.55;;
49310;SDS011;35177;45.900;5.946;2023-10-08T11:18:18;12.30;;;4.70;;
49310;SDS011;35177;45.900;5.946;2023-10-08T11:20:46;12.35;;;4.28;;
49310;SDS011;35177;45.900;5.946;2023-10-08T11:23:35;9.57;;;4.95;;
49310;SDS011;35177;45.900;5.946;2023-10-08T11:26:05;10.15;;;4.63;;
49310;SDS011;35177;45.900;5.946;2023-10-08T11:28:32;8.23;;;4.07;;
49310;SDS011;35177;45.900;5.946;2023-10-08T11:31:07;9.77;;;4.20;;
49310;SDS011;35177;45.900;5.946;2023-10-08T11:33:38;13.52;;;4.22;;
49310;SDS011;35177;45.900;5.946;2023-10-08T11:36:06;10.70;;;4.18;;
49310;SDS011;35177;45.900;5.946;2023-10-08T11:38:43;13.27;;;4.50;;
49310;SDS011;35177;45.900;5.946;2023-10-08T11:41:13;15.23;;;5.25;;
49310;SDS011;35177;45.900;5.946;2023-10-08T11:43:47;9.93;;;4.13;;
49310;SDS011;35177;45.900;5.946;2023-10-08T11:46:13;12.73;;;4.43;;
49310;SDS011;35177;45.900;5.946;2023-10-08T11:48:43;8.63;;;4.30;;
49310;SDS011;35177;45.900;5.946;2023-10-08T11:51:11;12.38;;;3.75;;
49310;SDS011;35177;45.900;5.946;2023-10-08T11:53:41;9.07;;;4.55;;
49310;SDS011;35177;45.900;5.946;2023-10-08T11:56:09;12.23;;;4.30;;
49310;SDS011;35177;45.900;5.946;2023-10-08T11:58:38;15.07;;;4.82;;
49310;SDS011;35177;45.900;5.946;2023-10-08T12:01:12;9.80;;;4.25;;
49310;SDS011;35177;45.900;5.946;2023-10-08T12:03:41;9.82;;;3.65;;
49310;SDS011;35177;45.900;5.946;2023-10-08T12:06:08;10.48;;;4.15;;
49310;SDS011;35177;45.900;5.946;2023-10-08T12:08:36;14.98;;;4.40;;
49310;SDS011;35177;45.900;5.946;2023-10-08T12:11:04;14.38;;;4.68;;
49310;SDS011;35177;45.900;5.946;2023-10-08T12:13:36;6.88;;;3.47;;
49310;SDS011;35177;45.900;5.946;2023-10-08T12:16:15;9.00;;;3.90;;
49310;SDS011;35177;45.900;5.946;2023-10-08T12:18:46;11.32;;;4.35;;
49310;SDS011;35177;45.900;5.946;2023-10-08T12:21:22;12.45;;;4.35;;
49310;SDS011;35177;45.900;5.946;2023-10-08T12:23:49;11.02;;;4.63;;
49310;SDS011;35177;45.900;5.946;2023-10-08T12:26:16;8.35;;;4.50;;
49310;SDS011;35177;45.900;5.946;2023-10-08T12:28:44;11.80;;;4.60;;
49310;SDS011;35177;45.900;5.946;2023-10-08T12:31:13;8.23;;;3.78;;
49310;SDS011;35177;45.900;5.946;2023-10-08T12:33:47;8.35;;;4.05;;
49310;SDS011;35177;45.900;5.946;2023-10-08T12:36:19;11.73;;;4.00;;
49310;SDS011;35177;45.900;5.946;2023-10-08T12:38:48;9.27;;;4.03;;
49310;SDS011;35177;45.900;5.946;2023-10-08T12:41:14;6.00;;;3.35;;
49310;SDS011;35177;45.900;5.946;2023-10-08T12:43:40;10.98;;;4.65;;
49310;SDS011;35177;45.900;5.946;2023-10-08T12:46:08;11.65;;;4.32;;
49310;SDS011;35177;45.900;5.946;2023-10-08T12:48:35;9.27;;;3.70;;
49310;SDS011;35177;45.900;5.946;2023-10-08T12:51:02;9.10;;;4.07;;
49310;SDS011;35177;45.900;5.946;2023-10-08T12:53:30;11.65;;;4.10;;
49310;SDS011;35177;45.900;5.946;2023-10-08T12:55:59;9.02;;;3.95;;
49310;SDS011;35177;45.900;5.946;2023-10-08T12:58:30;11.10;;;4.45;;
49310;SDS011;35177;45.900;5.946;2023-10-08T13:00:57;7.70;;;3.72;;
49310;SDS011;35177;45.900;5.946;2023-10-08T13:03:26;10.05;;;4.47;;
49310;SDS011;35177;45.900;5.946;2023-10-08T13:05:55;9.60;;;3.78;;
49310;SDS011;35177;45.900;5.946;2023-10-08T13:08:29;9.40;;;3.75;;
49310;SDS011;35177;45.900;5.946;2023-10-08T13:10:56;10.55;;;3.67;;
49310;SDS011;35177;45.900;5.946;2023-10-08T13:13:26;10.15;;;3.88;;
49310;SDS011;35177;45.900;5.946;2023-10-08T13:15:52;10.85;;;4.13;;
49310;SDS011;35177;45.900;5.946;2023-10-08T13:18:21;10.98;;;3.35;;
49310;SDS011;35177;45.900;5.946;2023-10-08T13:20:46;7.78;;;3.65;;
49310;SDS011;35177;45.900;5.946;2023-10-08T13:23:13;15.07;;;4.28;;
49310;SDS011;35177;45.900;5.946;2023-10-08T13:25:38;12.20;;;4.00;;
49310;SDS011;35177;45.900;5.946;2023-10-08T13:28:04;12.35;;;4.20;;
49310;SDS011;35177;45.900;5.946;2023-10-08T13:30:32;12.32;;;4.15;;
49310;SDS011;35177;45.900;5.946;2023-10-08T13:32:57;13.35;;;3.92;;
49310;SDS011;35177;45.900;5.946;2023-10-08T13:35:24;7.47;;;3.25;;
49310;SDS011;35177;45.900;5.946;2023-10-08T13:37:50;12.13;;;4.88;;
49310;SDS011;35177;45.900;5.946;2023-10-08T13:40:17;16.77;;;3.83;;
49310;SDS011;35177;45.900;5.946;2023-10-08T13:42:42;16.60;;;4.25;;
49310;SDS011;35177;45.900;5.946;2023-10-08T13:45:08;10.00;;;3.47;;
49310;SDS011;35177;45.900;5.946;2023-10-08T13:47:34;9.82;;;3.78;;
49310;SDS011;35177;45.900;5.946;2023-10-08T13:50:00;10.80;;;3.80;;
49310;SDS011;35177;45.900;5.946;2023-10-08T13:52:28;8.63;;;3.63;;
49310;SDS011;35177;45.900;5.946;2023-10-08T13:54:54;10.10;;;3.50;;
49310;SDS011;35177;45.900;5.946;2023-10-08T13:57:20;8.85;;;3.70;;
49310;SDS011;35177;45.900;5.946;2023-10-08T13:59:49;12.75;;;3.67;;
49310;SDS011;35177;45.900;5.946;2023-10-08T14:02:15;8.73;;;3.58;;
49310;SDS011;35177;45.900;5.946;2023-10-08T14:04:44;11.25;;;3.95;;
49310;SDS011;35177;45.900;5.946;2023-10-08T14:07:10;9.60;;;3.38;;
49310;SDS011;35177;45.900;5.946;2023-10-08T14:09:45;17.75;;;4.32;;
49310;SDS011;35177;45.900;5.946;2023-10-08T14:12:11;10.27;;;3.45;;
49310;SDS011;35177;45.900;5.946;2023-10-08T14:14:38;16.02;;;4.60;;
49310;SDS011;35177;45.900;5.946;2023-10-08T14:17:10;12.30;;;3.55;;
49310;SDS011;35177;45.900;5.946;2023-10-08T14:19:40;11.00;;;3.75;;
49310;SDS011;35177;45.900;5.946;2023-10-08T14:22:24;12.68;;;3.80;;
49310;SDS011;35177;45.900;5.946;2023-10-08T14:24:50;9.38;;;3.50;;
49310;SDS011;35177;45.900;5.946;2023-10-08T14:27:27;8.70;;;3.15;;
49310;SDS011;35177;45.900;5.946;2023-10-08T14:30:06;10.15;;;4.30;;
49310;SDS011;35177;45.900;5.946;2023-10-08T14:32:40;10.15;;;3.67;;
49310;SDS011;35177;45.900;5.946;2023-10-08T14:35:10;12.02;;;3.85;;
49310;SDS011;35177;45.900;5.946;2023-10-08T14:37:54;10.07;;;3.42;;
49310;SDS011;35177;45.900;5.946;2023-10-08T14:43:21;11.85;;;4.13;;
49310;SDS011;35177;45.900;5.946;2023-10-08T14:45:49;11.60;;;3.50;;
49310;SDS011;35177;45.900;5.946;2023-10-08T14:48:14;12.10;;;3.30;;
49310;SDS011;35177;45.900;5.946;2023-10-08T14:50:41;8.48;;;3.75;;
49310;SDS011;35177;45.900;5.946;2023-10-08T14:53:07;9.15;;;3.47;;
49310;SDS011;35177;45.900;5.946;2023-10-08T14:55:32;10.52;;;3.47;;
49310;SDS011;35177;45.900;5.946;2023-10-08T14:58:00;11.52;;;3.25;;
49310;SDS011;35177;45.900;5.946;2023-10-08T15:00:32;13.55;;;3.92;;
49310;SDS011;35177;45.900;5.946;2023-10-08T15:03:01;9.35;;;3.65;;
49310;SDS011;35177;45.900;5.946;2023-10-08T15:05:28;10.45;;;3.67;;
49310;SDS011;35177;45.900;5.946;2023-10-08T15:07:53;17.00;;;3.72;;
49310;SDS011;35177;45.900;5.946;2023-10-08T15:10:19;10.75;;;3.60;;
49310;SDS011;35177;45.900;5.946;2023-10-08T15:12:48;17.25;;;4.13;;
49310;SDS011;35177;45.900;5.946;2023-10-08T15:15:16;13.85;;;3.53;;
49310;SDS011;35177;45.900;5.946;2023-10-08T15:17:42;12.93;;;3.90;;
49310;SDS011;35177;45.900;5.946;2023-10-08T15:20:10;23.90;;;5.30;;
49310;SDS011;35177;45.900;5.946;2023-10-08T15:22:41;11.85;;;4.20;;
49310;SDS011;35177;45.900;5.946;2023-10-08T15:25:11;8.40;;;3.53;;